createdAt,value
2023-01-09T00:01:35.307Z,94743.69
2023-01-09T00:04:05.567Z,94748.00
2023-01-09T00:06:34.280Z,94736.31
2023-01-09T00:09:03.414Z,94720.94
2023-01-09T00:11:32.522Z,94724.66
2023-01-09T00:14:01.372Z,94722.25
2023-01-09T00:16:30.372Z,94723.47
2023-01-09T00:19:01.137Z,94713.09
2023-01-09T00:21:29.967Z,94712.66
2023-01-09T00:23:58.505Z,94699.22
2023-01-09T00:26:27.444Z,94698.63
2023-01-09T00:28:56.277Z,94691.88
2023-01-09T00:31:24.966Z,94696.72
2023-01-09T00:34:00.153Z,94693.50
2023-01-09T00:36:30.296Z,94688.97
2023-01-09T00:38:58.983Z,94685.31
2023-01-09T00:41:30.337Z,94686.63
2023-01-09T00:44:00.689Z,94688.16
2023-01-09T00:46:33.309Z,94699.63
2023-01-09T00:49:02.563Z,94698.53
2023-01-09T00:51:36.295Z,94689.16
2023-01-09T00:54:05.796Z,94687.13
2023-01-09T00:56:36.404Z,94700.25
2023-01-09T00:59:05.469Z,94696.31
2023-01-09T01:01:36.726Z,94688.84
2023-01-09T01:04:25.969Z,94685.19
2023-01-09T01:07:12.814Z,94680.94
2023-01-09T01:09:41.653Z,94684.28
2023-01-09T01:12:10.170Z,94673.06
2023-01-09T01:14:40.164Z,94670.31
2023-01-09T01:17:09.352Z,94672.75
2023-01-09T01:19:38.390Z,94665.88
2023-01-09T01:22:08.139Z,94671.53
2023-01-09T01:24:36.496Z,94661.63
2023-01-09T01:27:22.497Z,94653.13
2023-01-09T01:30:03.611Z,94652.75
2023-01-09T01:32:32.341Z,94657.38
2023-01-09T01:35:00.894Z,94650.50
2023-01-09T01:37:30.636Z,94644.34
2023-01-09T01:39:59.222Z,94638.06
2023-01-09T01:42:27.907Z,94633.56
2023-01-09T01:45:00.920Z,94617.53
2023-01-09T01:47:36.850Z,94603.06
2023-01-09T01:50:09.518Z,94603.97
2023-01-09T01:52:39.355Z,94590.06
2023-01-09T01:55:10.258Z,94601.16
2023-01-09T01:57:39.655Z,94577.72
2023-01-09T02:00:09.331Z,94578.53
2023-01-09T02:02:38.140Z,94576.84
2023-01-09T02:05:08.014Z,94576.59
2023-01-09T02:07:36.534Z,94558.00
2023-01-09T02:10:07.088Z,94558.59
2023-01-09T02:12:35.524Z,94550.00
2023-01-09T02:15:06.548Z,94538.84
2023-01-09T02:18:05.696Z,94538.56
2023-01-09T02:20:40.997Z,94507.81
2023-01-09T02:23:49.980Z,94524.06
2023-01-09T02:27:03.510Z,94528.91
2023-01-09T02:30:11.829Z,94529.59
2023-01-09T02:32:51.443Z,94525.94
2023-01-09T02:35:28.958Z,94516.75
2023-01-09T02:38:04.282Z,94513.06
2023-01-09T02:40:36.525Z,94507.00
2023-01-09T02:43:05.764Z,94516.41
2023-01-09T02:45:34.637Z,94506.66
2023-01-09T02:48:04.982Z,94509.19
2023-01-09T02:50:38.734Z,94510.78
2023-01-09T02:53:20.228Z,94515.34
2023-01-09T02:55:57.099Z,94509.72
2023-01-09T02:58:35.670Z,94517.78
2023-01-09T03:01:14.092Z,94511.91
2023-01-09T03:03:49.251Z,94515.25
2023-01-09T03:06:23.363Z,94515.13
2023-01-09T03:08:54.781Z,94512.50
2023-01-09T03:11:23.639Z,94510.78
2023-01-09T03:13:55.244Z,94507.25
2023-01-09T03:16:26.696Z,94508.03
2023-01-09T03:18:58.007Z,94515.94
2023-01-09T03:21:28.044Z,94498.19
2023-01-09T03:23:57.763Z,94477.72
2023-01-09T03:26:32.399Z,94513.16
2023-01-09T03:31:46.431Z,94492.13
2023-01-09T03:34:17.904Z,94496.19
2023-01-09T03:36:46.554Z,94493.53
2023-01-09T03:39:15.315Z,94496.72
2023-01-09T03:41:44.080Z,94498.38
2023-01-09T03:44:12.774Z,94490.91
2023-01-09T03:46:41.811Z,94498.25
2023-01-09T03:49:11.426Z,94486.19
2023-01-09T03:51:41.883Z,94484.16
2023-01-09T03:54:10.384Z,94479.09
2023-01-09T03:56:38.818Z,94469.56
2023-01-09T03:59:07.555Z,94469.44
2023-01-09T04:01:36.470Z,94472.78
2023-01-09T04:04:05.423Z,94477.63
2023-01-09T04:06:34.121Z,94470.84
2023-01-09T04:09:04.372Z,94476.00
2023-01-09T04:11:33.350Z,94473.59
2023-01-09T04:14:04.206Z,94466.91
2023-01-09T04:16:32.873Z,94464.38
2023-01-09T04:19:01.963Z,94465.09
2023-01-09T04:21:30.453Z,94462.56
2023-01-09T04:23:59.305Z,94453.69
2023-01-09T04:26:33.466Z,94458.63
2023-01-09T04:29:01.999Z,94455.63
2023-01-09T04:31:30.629Z,94457.28
2023-01-09T04:34:00.459Z,94460.59
2023-01-09T04:36:29.295Z,94443.94
2023-01-09T04:38:57.813Z,94453.13
2023-01-09T04:41:40.256Z,94456.34
2023-01-09T04:44:10.433Z,94451.63
2023-01-09T04:46:39.270Z,94455.63
2023-01-09T04:49:07.916Z,94445.53
2023-01-09T04:51:36.471Z,94449.69
2023-01-09T04:54:06.199Z,94456.34
2023-01-09T04:56:34.676Z,94461.41
2023-01-09T04:59:03.627Z,94456.22
2023-01-09T05:01:34.046Z,94455.41
2023-01-09T05:04:03.311Z,94452.88
2023-01-09T05:06:32.677Z,94454.63
2023-01-09T05:09:01.719Z,94454.50
2023-01-09T05:11:30.283Z,94449.56
2023-01-09T05:13:58.993Z,94456.22
2023-01-09T05:16:30.192Z,94452.88
2023-01-09T05:19:00.768Z,94461.41
2023-01-09T05:21:29.650Z,94459.69
2023-01-09T05:23:58.796Z,94473.09
2023-01-09T05:26:27.837Z,94467.81
2023-01-09T05:28:57.671Z,94485.38
2023-01-09T05:31:28.023Z,94481.38
2023-01-09T05:33:58.442Z,94482.97
2023-01-09T05:36:29.515Z,94483.91
2023-01-09T05:38:58.588Z,94486.44
2023-01-09T05:41:27.096Z,94492.28
2023-01-09T05:43:55.759Z,94494.91
2023-01-09T05:46:24.593Z,94495.13
2023-01-09T05:48:53.184Z,94494.56
2023-01-09T05:51:21.773Z,94493.75
2023-01-09T05:53:51.782Z,94497.19
2023-01-09T05:56:20.554Z,94503.25
2023-01-09T05:58:48.920Z,94509.13
2023-01-09T06:01:17.822Z,94507.75
2023-01-09T06:03:46.376Z,94525.44
2023-01-09T06:06:15.076Z,94518.06
2023-01-09T06:08:43.742Z,94521.84
2023-01-09T06:11:30.672Z,94531.84
2023-01-09T06:13:59.398Z,94531.03
2023-01-09T06:16:28.408Z,94533.44
2023-01-09T06:18:56.895Z,94540.31
2023-01-09T06:21:26.489Z,94547.78
2023-01-09T06:23:55.246Z,94565.22
2023-01-09T06:26:25.704Z,94576.44
2023-01-09T06:28:55.905Z,94588.75
2023-01-09T06:31:24.806Z,94592.38
2023-01-09T06:33:53.581Z,94588.00
2023-01-09T06:36:22.787Z,94585.75
2023-01-09T06:38:51.602Z,94566.84
2023-01-09T06:41:20.172Z,94573.25
2023-01-09T06:43:50.110Z,94584.31
2023-01-09T06:46:18.585Z,94578.19
2023-01-09T06:48:47.078Z,94588.91
2023-01-09T06:51:17.350Z,94598.91
2023-01-09T06:53:46.667Z,94599.84
2023-01-09T06:56:17.865Z,94609.84
2023-01-09T06:58:46.713Z,94607.09
2023-01-09T07:01:33.847Z,94611.84
2023-01-09T07:04:02.689Z,94609.34
2023-01-09T07:06:31.572Z,94617.09
2023-01-09T07:09:59.857Z,94613.88
2023-01-09T07:12:28.690Z,94618.28
2023-01-09T07:14:57.717Z,94622.22
2023-01-09T07:17:27.729Z,94629.06
2023-01-09T07:20:18.686Z,94627.00
2023-01-09T07:22:48.244Z,94633.44
2023-01-09T07:25:17.209Z,94636.34
2023-01-09T07:27:46.240Z,94646.34
2023-01-09T07:30:18.732Z,94646.81
2023-01-09T07:32:48.906Z,94644.88
2023-01-09T07:35:17.603Z,94648.56
2023-01-09T07:37:49.556Z,94661.34
2023-01-09T07:40:18.660Z,94660.41
2023-01-09T07:42:47.145Z,94665.34
2023-01-09T07:45:16.090Z,94671.00
2023-01-09T07:47:45.243Z,94680.13
2023-01-09T07:50:17.848Z,94673.44
2023-01-09T07:52:46.696Z,94678.50
2023-01-09T07:55:17.554Z,94691.84
2023-01-09T07:57:50.103Z,94700.72
2023-01-09T08:00:21.380Z,94701.38
2023-01-09T08:02:53.410Z,94706.44
2023-01-09T08:05:24.001Z,94713.84
2023-01-09T08:07:54.913Z,94718.31
2023-01-09T08:10:26.374Z,94712.34
2023-01-09T08:12:54.896Z,94714.97
2023-01-09T08:15:23.849Z,94718.31
2023-01-09T08:17:52.465Z,94718.31
2023-01-09T08:20:21.051Z,94742.94
2023-01-09T08:22:52.305Z,94745.00
2023-01-09T08:25:20.640Z,94744.78
2023-01-09T08:27:49.608Z,94744.56
2023-01-09T08:30:19.171Z,94749.50
2023-01-09T08:32:51.168Z,94758.72
2023-01-09T08:35:45.477Z,94758.63
2023-01-09T08:38:16.611Z,94773.00
2023-01-09T08:40:48.247Z,94765.75
2023-01-09T08:43:35.052Z,94775.00
2023-01-09T08:46:21.321Z,94759.97
2023-01-09T08:48:49.879Z,94781.09
2023-01-09T08:51:19.019Z,94784.19
2023-01-09T08:53:48.897Z,94774.50
2023-01-09T08:56:20.507Z,94785.31
2023-01-09T08:58:49.239Z,94785.06
2023-01-09T09:01:18.067Z,94784.13
2023-01-09T09:03:46.971Z,94793.56
2023-01-09T09:06:15.825Z,94797.88
2023-01-09T09:11:31.244Z,94797.47
2023-01-09T09:14:00.209Z,94813.44
2023-01-09T09:16:29.351Z,94820.69
2023-01-09T09:19:00.057Z,94826.44
2023-01-09T09:21:31.611Z,94826.69
2023-01-09T09:24:00.552Z,94833.88
2023-01-09T09:26:30.608Z,94838.69
2023-01-09T09:28:59.180Z,94858.69
2023-01-09T09:31:27.725Z,94855.31
2023-01-09T09:33:56.587Z,94860.88
2023-01-09T09:36:33.371Z,94867.56
2023-01-09T09:39:03.059Z,94859.63
2023-01-09T09:42:30.609Z,94853.47
2023-01-09T09:45:08.543Z,94849.09
2023-01-09T09:47:53.941Z,94851.50
2023-01-09T09:51:03.938Z,94856.59
2023-01-09T09:53:35.278Z,94850.25
2023-01-09T09:56:05.131Z,94798.81
2023-01-09T09:58:39.052Z,94863.16
2023-01-09T10:01:09.644Z,94859.47
2023-01-09T10:03:41.459Z,94860.34
2023-01-09T10:06:17.823Z,94854.00
2023-01-09T10:08:50.459Z,94859.78
2023-01-09T10:11:23.790Z,94862.19
2023-01-09T10:14:13.074Z,94872.94
2023-01-09T10:17:03.583Z,94876.38
2023-01-09T10:19:44.904Z,94879.09
2023-01-09T10:22:25.079Z,94858.00
2023-01-09T10:25:08.126Z,94861.09
2023-01-09T10:27:44.996Z,94863.28
2023-01-09T10:30:28.384Z,94854.59
2023-01-09T10:33:07.841Z,94847.50
2023-01-09T10:35:54.543Z,94840.75
2023-01-09T10:38:27.618Z,94826.44
2023-01-09T10:41:01.733Z,94838.50
2023-01-09T10:43:35.199Z,94844.22
2023-01-09T10:46:07.364Z,94846.19
2023-01-09T10:48:37.320Z,94844.53
2023-01-09T10:51:15.885Z,94846.81
2023-01-09T10:58:01.292Z,94855.53
2023-01-09T11:00:30.390Z,94848.13
2023-01-09T11:03:01.013Z,94833.94
2023-01-09T11:05:32.827Z,94845.34
2023-01-09T11:08:06.136Z,94826.78
2023-01-09T11:10:49.409Z,94832.41
2023-01-09T11:13:22.024Z,94826.59
2023-01-09T11:16:13.188Z,94832.13
2023-01-09T11:18:51.089Z,94821.78
2023-01-09T11:21:32.114Z,94787.84
2023-01-09T11:24:35.458Z,94814.03
2023-01-09T11:27:24.741Z,94804.09
2023-01-09T11:30:11.601Z,94821.13
2023-01-09T11:32:42.424Z,94824.75
2023-01-09T11:35:20.228Z,94831.38
2023-01-09T11:37:50.578Z,94817.47
2023-01-09T11:40:21.588Z,94819.38
2023-01-09T11:43:17.278Z,94817.16
2023-01-09T11:46:00.128Z,94813.59
2023-01-09T11:48:34.040Z,94815.28
2023-01-09T11:51:06.928Z,94817.38
2023-01-09T11:53:52.550Z,94832.06
2023-01-09T11:56:20.973Z,94841.91
2023-01-09T11:58:49.751Z,94846.34
2023-01-09T12:01:30.119Z,94853.97
2023-01-09T12:04:18.555Z,94854.28
2023-01-09T12:06:58.133Z,94853.63
2023-01-09T12:09:32.932Z,94850.06
2023-01-09T12:12:04.008Z,94858.72
2023-01-09T12:14:46.538Z,94864.06
2023-01-09T12:17:36.377Z,94878.66
2023-01-09T12:20:26.826Z,94861.91
2023-01-09T12:23:02.506Z,94852.84
2023-01-09T12:25:38.102Z,94844.09
2023-01-09T12:28:32.430Z,94849.97
2023-01-09T12:31:10.472Z,94850.22
2023-01-09T12:33:44.531Z,94855.59
2023-01-09T12:36:19.695Z,94854.59
2023-01-09T12:39:01.588Z,94854.41
2023-01-09T12:41:45.003Z,94869.47
2023-01-09T12:44:49.716Z,94863.81
2023-01-09T12:47:38.242Z,94856.59
2023-01-09T12:50:18.762Z,94872.06
2023-01-09T12:52:48.797Z,94865.19
2023-01-09T12:55:22.029Z,94885.28
2023-01-09T12:57:53.262Z,94882.13
2023-01-09T13:00:25.150Z,94891.38
2023-01-09T13:03:10.962Z,94890.94
2023-01-09T13:05:45.147Z,94902.28
2023-01-09T13:08:17.475Z,94898.41
2023-01-09T13:10:49.846Z,94890.19
2023-01-09T13:13:21.990Z,94883.59
2023-01-09T13:15:55.127Z,94885.59
2023-01-09T13:18:30.431Z,94885.28
2023-01-09T13:21:00.184Z,94886.34
2023-01-09T13:23:35.071Z,94895.69
2023-01-09T13:26:09.740Z,94895.00
2023-01-09T13:28:43.965Z,94894.31
2023-01-09T13:31:43.377Z,94895.81
2023-01-09T13:34:22.049Z,94885.66
2023-01-09T13:36:55.390Z,94882.44
2023-01-09T13:39:26.523Z,94885.91
2023-01-09T13:42:16.929Z,94883.38
2023-01-09T13:44:46.321Z,94889.75
2023-01-09T13:47:20.915Z,94896.56
2023-01-09T13:50:21.280Z,94913.00
2023-01-09T13:52:50.752Z,94905.47
2023-01-09T13:55:36.000Z,94895.53
2023-01-09T13:58:24.185Z,94906.16
2023-01-09T14:01:01.884Z,94902.25
2023-01-09T14:04:14.598Z,94913.00
2023-01-09T14:07:26.526Z,94917.34
2023-01-09T14:10:01.853Z,94923.69
2023-01-09T14:12:32.228Z,94922.34
2023-01-09T14:15:03.432Z,94922.47
2023-01-09T14:17:37.073Z,94908.31
2023-01-09T14:20:13.726Z,94943.84
2023-01-09T14:22:55.785Z,94953.56
2023-01-09T14:25:28.849Z,94958.66
2023-01-09T14:28:21.755Z,94955.66
2023-01-09T14:31:13.857Z,94947.47
2023-01-09T14:33:42.530Z,94960.50
2023-01-09T14:36:15.239Z,94966.06
2023-01-09T14:38:48.148Z,94965.75
2023-01-09T14:41:43.624Z,94969.31
2023-01-09T14:44:25.895Z,94963.53
2023-01-09T14:46:57.391Z,94963.22
2023-01-09T14:49:33.372Z,94963.09
2023-01-09T14:52:04.809Z,94958.94
2023-01-09T14:54:37.634Z,94964.03
2023-01-09T14:57:24.868Z,94953.03
2023-01-09T14:59:58.232Z,94963.22
2023-01-09T15:02:30.315Z,94950.38
2023-01-09T15:05:02.755Z,94956.16
2023-01-09T15:07:34.964Z,94961.59
2023-01-09T15:10:05.063Z,94966.69
2023-01-09T15:12:35.808Z,94957.31
2023-01-09T15:15:06.100Z,94965.28
2023-01-09T15:17:38.432Z,94961.25
2023-01-09T15:20:09.166Z,94965.66
2023-01-09T15:22:38.630Z,94964.03
2023-01-09T15:25:38.965Z,94955.03
2023-01-09T15:28:32.430Z,94954.22
2023-01-09T15:31:07.314Z,94957.47
2023-01-09T15:33:40.304Z,94962.75
2023-01-09T15:36:14.035Z,94954.59
2023-01-09T15:38:43.121Z,94949.59
2023-01-09T15:41:38.904Z,94948.81
2023-01-09T15:44:14.680Z,94963.22
2023-01-09T15:46:44.228Z,94957.91
2023-01-09T15:49:15.022Z,94960.44
2023-01-09T15:51:45.510Z,94968.88
2023-01-09T15:54:21.801Z,94962.09
2023-01-09T15:56:53.163Z,94965.41
2023-01-09T15:59:29.760Z,94963.81
2023-01-09T16:02:14.530Z,94962.09
2023-01-09T16:04:47.053Z,94966.09
2023-01-09T16:07:17.575Z,94959.53
2023-01-09T16:09:47.846Z,94966.47
2023-01-09T16:12:20.384Z,94968.44
2023-01-09T16:14:53.129Z,94972.00
2023-01-09T16:17:26.642Z,94973.06
2023-01-09T16:19:58.239Z,94958.50
2023-01-09T16:22:27.990Z,94954.34
2023-01-09T16:24:58.870Z,94963.13
2023-01-09T16:27:28.983Z,94972.59
2023-01-09T16:29:59.704Z,94976.75
2023-01-09T16:32:30.877Z,94981.81
2023-01-09T16:35:05.421Z,94972.34
2023-01-09T16:37:37.578Z,94975.72
2023-01-09T16:40:27.807Z,94975.84
2023-01-09T16:43:07.583Z,94982.50
2023-01-09T16:45:44.956Z,94980.44
2023-01-09T16:48:17.864Z,94988.97
2023-01-09T16:50:47.862Z,94995.00
2023-01-09T16:53:18.486Z,94998.31
2023-01-09T16:55:47.811Z,94995.09
2023-01-09T16:58:21.946Z,94998.66
2023-01-09T17:00:53.362Z,94999.59
2023-01-09T17:03:22.577Z,94993.00
2023-01-09T17:05:57.687Z,94994.84
2023-01-09T17:08:29.934Z,94988.28
2023-01-09T17:11:01.007Z,94966.66
2023-01-09T17:13:29.849Z,94986.06
2023-01-09T17:15:59.453Z,94990.34
2023-01-09T17:18:29.807Z,94985.28
2023-01-09T17:21:00.284Z,94987.25
2023-01-09T17:23:29.067Z,94987.94
2023-01-09T17:26:28.775Z,94993.13
2023-01-09T17:28:57.294Z,94993.38
2023-01-09T17:31:26.086Z,94999.13
2023-01-09T17:33:55.017Z,94999.03
2023-01-09T17:36:54.022Z,95000.03
2023-01-09T17:39:23.209Z,94979.28
2023-01-09T17:41:52.471Z,95004.31
2023-01-09T17:44:20.984Z,94999.56
2023-01-09T17:47:38.882Z,95002.94
2023-01-09T17:50:08.963Z,94997.16
2023-01-09T17:52:38.751Z,95006.28
2023-01-09T17:55:08.469Z,95016.34
2023-01-09T17:57:37.087Z,95006.28
2023-01-09T18:00:07.099Z,95019.19
2023-01-09T18:02:36.122Z,95025.31
2023-01-09T18:05:30.541Z,95025.44
2023-01-09T18:08:03.309Z,95026.09
2023-01-09T18:10:32.227Z,94987.78
2023-01-09T18:13:00.913Z,95023.69
2023-01-09T18:15:29.681Z,95026.22
2023-01-09T18:17:58.254Z,95025.44
2023-01-09T18:20:26.932Z,95021.50
2023-01-09T18:22:57.830Z,95032.47
2023-01-09T18:25:28.127Z,95024.97
2023-01-09T18:28:00.686Z,95031.06
2023-01-09T18:30:29.383Z,95040.19
2023-01-09T18:33:00.737Z,95040.38
2023-01-09T18:35:29.992Z,95042.81
2023-01-09T18:38:01.018Z,95040.88
2023-01-09T18:40:33.342Z,95035.91
2023-01-09T18:43:05.134Z,95017.06
2023-01-09T18:45:34.640Z,95038.31
2023-01-09T18:48:06.587Z,94989.81
2023-01-09T18:50:44.832Z,95036.25
2023-01-09T18:53:16.628Z,95042.16
2023-01-09T18:55:46.955Z,95047.09
2023-01-09T18:58:17.924Z,95048.81
2023-01-09T19:00:46.795Z,95060.59
2023-01-09T19:03:17.995Z,95057.97
2023-01-09T19:05:46.651Z,95069.25
2023-01-09T19:08:17.493Z,95061.84
2023-01-09T19:10:52.439Z,95061.75
2023-01-09T19:13:21.488Z,95063.59
2023-01-09T19:15:54.533Z,95064.16
2023-01-09T19:18:23.837Z,95067.41
2023-01-09T19:20:53.049Z,95061.63
2023-01-09T19:23:27.368Z,95059.69
2023-01-09T19:25:57.909Z,95060.50
2023-01-09T19:28:26.717Z,95058.16
2023-01-09T19:30:58.923Z,95066.38
2023-01-09T19:33:27.579Z,95062.81
2023-01-09T19:36:06.556Z,95062.34
2023-01-09T19:38:35.219Z,95058.75
2023-01-09T19:41:13.275Z,95073.44
2023-01-09T19:43:41.814Z,95065.47
2023-01-09T19:46:11.972Z,95069.84
2023-01-09T19:48:42.655Z,95051.44
2023-01-09T19:51:12.108Z,95067.63
2023-01-09T19:53:41.423Z,95070.50
2023-01-09T19:56:19.178Z,95070.72
2023-01-09T19:58:52.075Z,95071.16
2023-01-09T20:01:22.853Z,95070.13
2023-01-09T20:03:52.028Z,95069.41
2023-01-09T20:06:24.497Z,95076.44
2023-01-09T20:08:54.755Z,95089.59
2023-01-09T20:11:26.784Z,95083.63
2023-01-09T20:13:56.937Z,95081.88
2023-01-09T20:16:30.631Z,95085.13
2023-01-09T20:19:08.013Z,95086.06
2023-01-09T20:21:37.548Z,95089.31
2023-01-09T20:24:09.511Z,95093.22
2023-01-09T20:26:48.020Z,95091.97
2023-01-09T20:29:18.305Z,95093.81
2023-01-09T20:31:47.183Z,95087.94
2023-01-09T20:34:16.407Z,95093.69
2023-01-09T20:36:45.846Z,95099.59
2023-01-09T20:39:14.803Z,95092.09
2023-01-09T20:41:49.910Z,95096.69
2023-01-09T20:44:18.634Z,95090.78
2023-01-09T20:46:48.428Z,95093.91
2023-01-09T20:49:18.729Z,95101.53
2023-01-09T20:51:49.667Z,95109.28
2023-01-09T20:54:21.600Z,95096.47
2023-01-09T20:56:52.296Z,95104.06
2023-01-09T20:59:22.541Z,95109.03
2023-01-09T21:01:51.965Z,95105.72
2023-01-09T21:04:20.988Z,95117.59
2023-01-09T21:06:50.317Z,95113.81
2023-01-09T21:09:20.503Z,95112.88
2023-01-09T21:11:49.436Z,95113.00
2023-01-09T21:14:20.464Z,95117.03
2023-01-09T21:16:54.713Z,95114.47
2023-01-09T21:19:24.807Z,95123.72
2023-01-09T21:21:53.833Z,95124.63
2023-01-09T21:24:24.326Z,95123.97
2023-01-09T21:26:52.893Z,95128.00
2023-01-09T21:29:23.022Z,95128.00
2023-01-09T21:31:51.901Z,95126.41
2023-01-09T21:34:21.377Z,95130.78
2023-01-09T21:36:54.058Z,95120.38
2023-01-09T21:39:24.705Z,95129.06
2023-01-09T21:42:10.839Z,95125.81
2023-01-09T21:44:58.681Z,95134.50
2023-01-09T21:47:27.445Z,95134.63
2023-01-09T21:49:59.208Z,95148.72
2023-01-09T21:52:28.059Z,95147.91
2023-01-09T21:54:57.947Z,95144.78
2023-01-09T21:57:29.452Z,95159.19
2023-01-09T22:00:01.152Z,95159.78
2023-01-09T22:02:30.003Z,95166.50
2023-01-09T22:05:01.476Z,95160.00
2023-01-09T22:07:30.123Z,95167.41
2023-01-09T22:09:59.109Z,95172.47
2023-01-09T22:12:27.614Z,95187.81
2023-01-09T22:14:56.234Z,95189.34
2023-01-09T22:17:26.335Z,95188.53
2023-01-09T22:19:55.045Z,95177.25
2023-01-09T22:22:53.757Z,95182.22
2023-01-09T22:25:23.887Z,95176.91
2023-01-09T22:27:52.718Z,95181.28
2023-01-09T22:30:21.698Z,95178.53
2023-01-09T22:32:51.912Z,95176.91
2023-01-09T22:35:20.696Z,95182.81
2023-01-09T22:37:49.533Z,95191.25
2023-01-09T22:40:19.421Z,95184.03
2023-01-09T22:42:48.229Z,95182.75
2023-01-09T22:45:16.947Z,95170.06
2023-01-09T22:47:45.952Z,95184.28
2023-01-09T22:50:16.407Z,95183.44
2023-01-09T22:52:45.297Z,95152.38
2023-01-09T22:55:14.248Z,95185.28
2023-01-09T22:57:43.560Z,95185.28
2023-01-09T23:00:13.753Z,95181.03
2023-01-09T23:02:42.417Z,95106.16
2023-01-09T23:05:11.419Z,95190.47
2023-01-09T23:07:46.401Z,95190.38
2023-01-09T23:10:16.815Z,95185.72
2023-01-09T23:12:48.720Z,95183.78
2023-01-09T23:15:17.422Z,95200.41
2023-01-09T23:17:46.550Z,95185.50
2023-01-09T23:20:15.232Z,95202.28
2023-01-09T23:22:43.866Z,95194.06
2023-01-09T23:25:15.917Z,95199.72
2023-01-09T23:27:45.462Z,95195.88
2023-01-09T23:30:14.667Z,95194.06
2023-01-09T23:32:44.415Z,95208.38
2023-01-09T23:35:13.374Z,95205.72
2023-01-09T23:37:41.792Z,95207.66
2023-01-09T23:40:12.834Z,95205.94
2023-01-09T23:43:00.500Z,95208.59
2023-01-09T23:45:29.163Z,95212.44
2023-01-09T23:47:57.940Z,95214.03
2023-01-09T23:50:26.411Z,95224.69
2023-01-09T23:52:55.080Z,95221.44
2023-01-09T23:55:23.792Z,95223.66
2023-01-09T23:57:55.919Z,95225.59
